Batumi International Airport
UGSB : rendu visible

Aérodrome :











RETROUVEZ-NOUS SUR...

 
LOGIN :

S'inscrire | Disclaimer

   EN    FR    IT 

 









Légende :    VFR   VFR Marginal   IFR   IFR Intensif   IFR Très Intensif
Visi : 
Plafond : 
>= 8 km
>= 3000ft
5 à 8 km
1000 à 3000 ft
1500m à 5 km
500 à 1000 ft
800 à 1500m
200 à 500 ft
< 800m
< 200 ft
Symboles :   Orages  Brouillard  Fortes neiges  Fortes précipitations  Vent > 20 kt







- Altitude de l'aérodrome : 105 ft
- Code IATA : BUS


UGSB - Batumi International

DERNIER METAR :
  • 200630Z 15003KT 080V210 9999 FEW023 SCT100 28/22 Q1018 R13/70D NOSIG

METARs EXPIRÉS :
  • 200600Z 15003KT 100V180 9999 FEW023 SCT100 27/22 Q1017 R13/70D NOSIG
  • 200530Z VRB02KT 9999 FEW020 SCT100 26/22 Q1017 R13/19//60 NOSIG
  • 200500Z 15005KT 9999 FEW020 SCT100 25/22 Q1017 R13/19//60 NOSIG
  • 200430Z 14006KT 9999 FEW021 24/22 Q1018 R13/19//60 NOSIG
  • 200400Z 12005KT 9999 FEW019CB SCT100 24/22 Q1017 R13/19//60 NOSIG

TAF TAF UGSB
Valide du 20 à 06h jusqu'au 21 à 06h UTC


200500Z 2006/2106 28008KT 9999 SCT020 BKN100 TX29/2012Z TN22/2101Z
PROB30
TEMPO 2007/2012 TSRA SCT015CB BKN030
TEMPO 2013/2020 VRB15KT TSRA SCT012 BKN020CB
BECMG 2015/2016 VRB03KT
FIR UGGG / Asie



MET'MAP, la Météo Aéronautique d'un coup d'oeil ! - Copyright ORBIFLY Décembre 2007 - Disclaimer

ORBIFLY MET'MAP TEAM :

Programmation & Développement : Alexandra Zaïnal
Conception & Développement : Baudouin d'Aumeries
Co-Programmation & Développement : Marc-Olivier Méhu
Soutien technique & logistique : Manuel Goepfert

Contact : metmap@orbifly.com




SOURCES & CREDITS :

   NOAA       Earth
Advisory